createdAt,value
2022-12-06T01:59:44.429Z,9.37
2022-12-06T13:12:45.314Z,11.70
2022-12-06T13:15:18.889Z,10.20
2022-12-06T13:17:59.262Z,10.40
2022-12-06T13:20:30.864Z,9.47
2022-12-06T13:23:04.956Z,9.67
2022-12-06T13:25:33.495Z,10.83
2022-12-06T13:28:06.338Z,10.60
2022-12-06T13:30:37.904Z,9.63
2022-12-06T13:33:20.724Z,9.30
2022-12-06T13:35:56.975Z,9.73
2022-12-06T13:38:31.605Z,10.07
2022-12-06T13:41:01.473Z,9.77
2022-12-06T13:43:57.998Z,9.00
2022-12-06T13:46:32.360Z,9.40
2022-12-06T13:49:21.966Z,9.00
2022-12-06T13:51:50.603Z,9.18
2022-12-06T13:54:36.916Z,8.38
2022-12-06T13:57:29.185Z,8.75
2022-12-06T13:59:59.526Z,8.73
2022-12-06T14:02:52.340Z,9.77
2022-12-06T14:08:40.965Z,8.95
2022-12-06T14:11:20.770Z,7.78
2022-12-06T14:13:51.631Z,8.93
2022-12-06T14:16:31.261Z,9.30
2022-12-06T14:19:00.044Z,8.85
2022-12-06T14:21:37.144Z,8.80
2022-12-06T14:24:06.692Z,8.93
2022-12-06T14:26:36.171Z,9.40
2022-12-06T14:29:04.580Z,9.93
2022-12-06T14:31:41.313Z,9.35
2022-12-06T14:34:26.783Z,7.78
2022-12-06T14:36:56.114Z,8.98
2022-12-06T14:39:26.894Z,9.02
2022-12-06T14:42:15.833Z,9.07
2022-12-06T14:44:50.236Z,8.65
2022-12-06T14:47:22.945Z,8.60
2022-12-06T14:50:11.209Z,8.77
2022-12-06T14:52:57.799Z,8.35
2022-12-06T14:55:27.491Z,9.18
2022-12-06T14:58:00.332Z,8.90
2022-12-06T15:00:49.965Z,8.88
2022-12-06T15:03:38.804Z,8.75
2022-12-06T15:06:17.994Z,8.60
2022-12-06T15:08:53.454Z,9.43
2022-12-06T15:11:50.788Z,8.80
2022-12-06T15:14:22.017Z,8.77
2022-12-06T15:17:03.332Z,8.68
2022-12-06T15:19:35.990Z,9.17
2022-12-06T15:22:05.687Z,9.00
2022-12-06T15:24:33.990Z,8.68
2022-12-06T15:27:02.518Z,8.77
2022-12-06T15:29:30.882Z,9.05
2022-12-06T15:31:59.431Z,8.48
2022-12-06T15:34:29.777Z,9.60
2022-12-06T15:37:36.997Z,9.50
2022-12-06T15:39:49.725Z,18.08
2022-12-06T15:42:21.758Z,11.45
2022-12-06T15:44:51.674Z,8.80
2022-12-06T15:47:20.555Z,8.77
2022-12-06T15:49:51.191Z,8.63
2022-12-06T15:52:24.328Z,8.80
2022-12-06T15:54:53.514Z,9.43
2022-12-06T15:57:21.898Z,9.53
2022-12-06T15:59:50.362Z,9.57
2022-12-06T16:02:21.377Z,9.77
2022-12-06T16:04:51.915Z,9.13
2022-12-06T16:07:21.988Z,9.00
2022-12-06T16:09:50.305Z,9.83
2022-12-06T16:12:19.089Z,10.07
2022-12-06T16:14:47.863Z,11.80
2022-12-06T16:17:16.260Z,10.50
2022-12-06T16:19:58.494Z,9.80
2022-12-06T16:22:42.042Z,10.37
2022-12-06T16:25:11.213Z,9.40
2022-12-06T16:27:39.683Z,9.73
2022-12-06T16:30:10.061Z,10.40
2022-12-06T16:32:38.479Z,9.33
2022-12-06T16:35:07.346Z,10.07
2022-12-06T16:37:37.120Z,10.10
2022-12-06T16:40:08.292Z,10.33
2022-12-06T16:42:36.690Z,9.83
2022-12-06T16:45:05.905Z,9.80
2022-12-06T16:47:34.270Z,9.70
2022-12-06T16:50:02.717Z,10.20
2022-12-06T16:52:31.240Z,9.43
2022-12-06T16:55:01.284Z,9.27
2022-12-06T16:57:29.763Z,11.40
2022-12-06T16:59:58.125Z,9.93
2022-12-06T17:02:29.188Z,10.33
2022-12-06T17:05:00.185Z,9.83
2022-12-06T17:07:28.853Z,9.50
2022-12-06T17:09:57.232Z,13.33
2022-12-06T17:12:27.218Z,15.53
2022-12-06T17:14:55.633Z,15.97
2022-12-06T17:17:26.142Z,11.03
2022-12-06T17:19:56.251Z,11.03
2022-12-06T17:22:24.897Z,11.07
2022-12-06T17:24:53.255Z,12.23
2022-12-06T17:27:21.570Z,10.13
2022-12-06T17:29:51.343Z,11.90
2022-12-06T17:32:21.062Z,11.70
2022-12-06T17:34:50.383Z,10.03
2022-12-06T17:37:18.747Z,11.07
2022-12-06T17:39:48.555Z,11.27
2022-12-06T17:42:34.522Z,11.43
2022-12-06T17:45:05.032Z,11.27
2022-12-06T17:47:33.818Z,10.33
2022-12-06T17:50:02.709Z,12.07
2022-12-06T17:52:31.477Z,11.80
2022-12-06T17:55:00.362Z,11.20
2022-12-06T17:57:29.580Z,12.20
2022-12-06T17:59:58.025Z,10.33
2022-12-06T18:02:28.206Z,12.90
2022-12-06T18:04:57.762Z,12.27
2022-12-06T18:07:26.576Z,12.20
2022-12-06T18:09:55.022Z,11.67
2022-12-06T18:12:23.550Z,9.67
2022-12-06T18:14:51.861Z,11.40
2022-12-06T18:17:20.321Z,10.97
2022-12-06T18:19:50.096Z,9.73
2022-12-06T18:22:19.857Z,11.50
2022-12-06T18:24:48.226Z,11.33
2022-12-06T18:27:17.536Z,11.07
2022-12-06T18:29:46.090Z,12.10
2022-12-06T18:32:14.486Z,11.07
2022-12-06T18:34:43.224Z,12.57
2022-12-06T18:37:12.889Z,12.33
2022-12-06T18:39:41.234Z,11.43
2022-12-06T18:42:09.512Z,11.63
2022-12-06T18:44:37.894Z,10.73
2022-12-06T18:47:06.340Z,12.23
2022-12-06T18:49:34.761Z,11.10
2022-12-06T18:52:03.138Z,9.00
2022-12-06T18:54:32.847Z,11.07
2022-12-06T18:57:01.235Z,11.13
2022-12-06T18:59:29.676Z,12.73
2022-12-06T19:01:58.176Z,7.97
2022-12-06T19:04:26.794Z,9.83
2022-12-06T19:06:55.485Z,10.60
2022-12-06T19:09:24.977Z,13.30
2022-12-06T19:11:54.748Z,13.10
2022-12-06T19:14:23.792Z,13.40
2022-12-06T19:16:53.194Z,12.27
2022-12-06T19:19:24.546Z,13.97
2022-12-06T19:21:55.117Z,12.83
2022-12-06T19:24:26.222Z,10.47
2022-12-06T19:26:58.920Z,12.97
2022-12-06T19:29:29.326Z,12.70
2022-12-06T19:31:57.929Z,13.33
2022-12-06T19:34:29.539Z,12.50
2022-12-06T19:36:58.187Z,12.63
2022-12-06T19:39:28.730Z,13.37
2022-12-06T19:42:16.352Z,12.30
2022-12-06T19:44:44.697Z,13.03
2022-12-06T19:47:13.687Z,13.03
2022-12-06T19:49:42.277Z,11.27
2022-12-06T19:52:10.876Z,9.53
2022-12-06T19:54:40.180Z,10.00
2022-12-06T19:57:09.948Z,12.67
2022-12-06T19:59:40.655Z,11.40
2022-12-06T20:02:12.845Z,13.93
2022-12-06T20:04:44.097Z,14.30
2022-12-06T20:07:12.936Z,11.73
2022-12-06T20:09:41.374Z,13.43
2022-12-06T20:12:13.371Z,13.40
2022-12-06T20:14:44.090Z,13.43
2022-12-06T20:17:15.162Z,13.83
2022-12-06T20:19:46.163Z,12.30
2022-12-06T20:22:16.614Z,12.27
2022-12-06T20:24:45.715Z,11.50
2022-12-06T20:27:16.442Z,13.17
2022-12-06T20:29:45.548Z,13.13
2022-12-06T20:32:14.086Z,13.87
2022-12-06T20:34:42.651Z,12.37
2022-12-06T20:37:12.838Z,13.00
2022-12-06T20:39:41.397Z,14.23
2022-12-06T20:42:10.139Z,12.37
2022-12-06T20:44:41.326Z,13.73
2022-12-06T20:47:11.057Z,12.77
2022-12-06T20:49:39.549Z,14.53
2022-12-06T20:52:08.448Z,13.83
2022-12-06T20:54:40.210Z,13.20
2022-12-06T20:57:08.721Z,14.00
2022-12-06T20:59:40.235Z,13.73
2022-12-06T21:02:12.414Z,14.67
2022-12-06T21:04:41.760Z,13.50
2022-12-06T21:07:10.395Z,14.27
2022-12-06T21:09:38.900Z,14.07
2022-12-06T21:12:07.714Z,13.23
2022-12-06T21:14:36.147Z,12.07
2022-12-06T21:17:05.908Z,12.93
2022-12-06T21:19:35.478Z,14.37
2022-12-06T21:22:07.969Z,13.73
2022-12-06T21:24:36.564Z,12.23
2022-12-06T21:27:07.017Z,12.17
2022-12-06T21:29:36.538Z,11.40
2022-12-06T21:32:06.674Z,12.07
2022-12-06T21:34:35.280Z,11.93
2022-12-06T21:37:03.654Z,11.37
2022-12-06T21:39:36.217Z,12.63
2022-12-06T21:42:11.136Z,11.50
2022-12-06T21:44:39.519Z,12.07
2022-12-06T21:47:09.340Z,11.80
2022-12-06T21:49:40.069Z,10.40
2022-12-06T21:52:09.520Z,11.53
2022-12-06T21:54:38.063Z,12.10
2022-12-06T21:57:06.806Z,12.37
2022-12-06T21:59:36.204Z,13.63
2022-12-06T22:02:04.750Z,14.83
2022-12-06T22:04:36.834Z,13.80
2022-12-06T22:07:05.255Z,11.57
2022-12-06T22:09:34.007Z,11.20
2022-12-06T22:12:06.281Z,11.23
2022-12-06T22:14:34.711Z,10.93
2022-12-06T22:17:03.149Z,12.87
2022-12-06T22:19:31.676Z,15.07
2022-12-06T22:22:01.510Z,21.70
2022-12-06T22:24:30.720Z,11.80
2022-12-06T22:27:00.940Z,11.77
2022-12-06T22:29:31.103Z,10.67
2022-12-06T22:31:59.775Z,11.30
2022-12-06T22:34:30.549Z,11.63
2022-12-06T22:37:01.577Z,10.57
2022-12-06T22:39:30.245Z,10.20
2022-12-06T22:41:58.607Z,10.60
2022-12-06T22:44:28.503Z,13.20
2022-12-06T22:46:57.448Z,11.20
2022-12-06T22:49:26.153Z,11.63
2022-12-06T22:51:54.501Z,10.63
2022-12-06T22:54:24.257Z,10.60
2022-12-06T22:56:52.543Z,11.07
2022-12-06T22:59:22.187Z,11.70
2022-12-06T23:01:50.720Z,11.70
2022-12-06T23:04:19.182Z,11.23
2022-12-06T23:06:47.600Z,11.67
2022-12-06T23:09:17.291Z,12.60
2022-12-06T23:11:48.062Z,12.83
2022-12-06T23:14:16.402Z,10.10
2022-12-06T23:16:46.928Z,12.37
2022-12-06T23:19:15.501Z,12.70
2022-12-06T23:21:43.930Z,11.57
2022-12-06T23:24:17.808Z,11.40
2022-12-06T23:26:54.523Z,12.50
2022-12-06T23:29:26.256Z,13.23
2022-12-06T23:31:54.784Z,14.07
2022-12-06T23:34:27.079Z,13.73
2022-12-06T23:36:57.284Z,12.93
2022-12-06T23:39:25.623Z,14.13
2022-12-06T23:41:55.381Z,14.57
2022-12-06T23:44:26.808Z,13.53
2022-12-06T23:46:56.427Z,13.57
2022-12-06T23:49:24.914Z,12.97
2022-12-06T23:51:53.317Z,12.97
2022-12-06T23:54:21.916Z,13.00
2022-12-06T23:56:50.373Z,16.87
2022-12-06T23:59:20.431Z,15.17
